createdAt,value
2017-10-21T00:00:28.580Z,14.60
2017-10-21T00:02:56.873Z,14.30
2017-10-21T00:05:25.150Z,14.40
2017-10-21T00:07:53.500Z,14.60
2017-10-21T00:10:22.512Z,14.30
2017-10-21T00:12:50.796Z,14.30
2017-10-21T00:15:19.541Z,14.30
2017-10-21T00:17:48.624Z,14.30
2017-10-21T00:20:16.866Z,14.10
2017-10-21T00:22:45.209Z,13.90
2017-10-21T00:25:13.466Z,14.10
2017-10-21T00:27:42.536Z,14.30
2017-10-21T00:30:10.862Z,14.30
2017-10-21T00:32:39.192Z,14.40
2017-10-21T00:35:07.525Z,14.40
2017-10-21T00:37:35.774Z,14.30
2017-10-21T00:40:04.814Z,13.90
2017-10-21T00:42:33.094Z,13.90
2017-10-21T00:45:01.461Z,13.90
2017-10-21T00:47:29.774Z,13.70
2017-10-21T00:49:58.027Z,13.60
2017-10-21T00:52:26.295Z,13.90
2017-10-21T00:54:55.102Z,13.40
2017-10-21T00:57:23.414Z,13.50
2017-10-21T00:59:51.685Z,13.70
2017-10-21T01:02:20.376Z,13.30
2017-10-21T01:04:49.394Z,13.20
2017-10-21T01:07:17.680Z,13.20
2017-10-21T01:09:45.973Z,13.10
2017-10-21T01:12:14.290Z,13.40
2017-10-21T01:14:43.324Z,13.10
2017-10-21T01:17:11.566Z,13.10
2017-10-21T01:19:40.689Z,13.20
2017-10-21T01:22:08.976Z,13.20
2017-10-21T01:24:37.319Z,13.20
2017-10-21T01:27:06.419Z,13.00
2017-10-21T01:29:35.432Z,13.00
2017-10-21T01:32:03.759Z,13.00
2017-10-21T01:34:32.108Z,13.00
2017-10-21T01:37:00.441Z,12.90
2017-10-21T01:39:28.765Z,13.00
2017-10-21T01:41:57.113Z,13.10
2017-10-21T01:44:25.374Z,12.80
2017-10-21T01:46:53.642Z,12.90
2017-10-21T01:49:22.764Z,12.80
2017-10-21T01:51:51.839Z,13.00
2017-10-21T01:54:20.115Z,13.00
2017-10-21T01:56:48.612Z,12.70
2017-10-21T01:59:16.887Z,12.80
2017-10-21T02:01:45.135Z,12.80
2017-10-21T02:04:14.210Z,12.80
2017-10-21T02:06:43.265Z,12.80
2017-10-21T02:09:11.509Z,12.80
2017-10-21T02:11:39.889Z,12.90
2017-10-21T02:14:08.185Z,13.00
2017-10-21T02:16:36.456Z,12.90
2017-10-21T02:19:04.840Z,12.90
2017-10-21T02:21:33.077Z,12.90
2017-10-21T02:24:02.090Z,13.00
2017-10-21T02:26:30.406Z,12.90
2017-10-21T02:28:58.751Z,13.00
2017-10-21T02:31:27.085Z,13.00
2017-10-21T02:33:55.359Z,13.00
2017-10-21T02:36:23.701Z,13.00
2017-10-21T02:38:51.962Z,13.00
2017-10-21T02:41:20.199Z,13.10
2017-10-21T02:43:48.936Z,13.10
2017-10-21T02:46:17.344Z,13.10
2017-10-21T02:48:45.580Z,13.20
2017-10-21T02:51:14.284Z,13.20
2017-10-21T02:53:42.526Z,13.30
2017-10-21T02:56:10.927Z,13.30
2017-10-21T02:58:39.272Z,13.30
2017-10-21T03:01:07.545Z,13.20
2017-10-21T03:03:35.836Z,13.20
2017-10-21T03:06:04.127Z,13.20
2017-10-21T03:08:32.426Z,13.20
2017-10-21T03:11:00.753Z,13.20
2017-10-21T03:13:29.007Z,13.30
2017-10-21T03:15:58.039Z,13.20
2017-10-21T03:18:26.396Z,13.20
2017-10-21T03:20:54.661Z,13.10
2017-10-21T03:23:22.947Z,13.10
2017-10-21T03:25:51.278Z,13.10
2017-10-21T03:28:20.387Z,13.00
2017-10-21T03:30:48.651Z,13.00
2017-10-21T03:33:16.927Z,13.00
2017-10-21T03:35:45.176Z,13.10
2017-10-21T03:38:13.476Z,13.00
2017-10-21T03:40:41.809Z,13.00
2017-10-21T03:43:10.152Z,13.00
2017-10-21T03:45:39.244Z,12.90
2017-10-21T03:48:07.551Z,12.90
2017-10-21T03:50:35.872Z,13.00
2017-10-21T03:53:04.198Z,12.90
2017-10-21T03:55:32.591Z,12.80
2017-10-21T03:58:00.869Z,12.80
2017-10-21T04:00:29.723Z,12.80
2017-10-21T04:02:57.987Z,12.70
2017-10-21T04:05:26.294Z,12.70
2017-10-21T04:07:55.395Z,12.60
2017-10-21T04:10:23.652Z,12.60
2017-10-21T04:12:51.887Z,12.50
2017-10-21T04:15:20.251Z,12.50
2017-10-21T04:17:48.527Z,12.50
2017-10-21T04:20:16.773Z,12.50
2017-10-21T04:22:45.097Z,12.40
2017-10-21T04:25:13.352Z,12.40
2017-10-21T04:27:41.617Z,12.30
2017-10-21T04:30:09.940Z,12.30
2017-10-21T04:32:38.189Z,12.30
2017-10-21T04:35:06.439Z,12.40
2017-10-21T04:37:34.773Z,12.30
2017-10-21T04:40:03.919Z,12.10
2017-10-21T04:42:32.228Z,12.10
2017-10-21T04:45:00.497Z,12.10
2017-10-21T04:47:28.805Z,12.10
2017-10-21T04:49:57.121Z,12.10
2017-10-21T04:52:25.370Z,12.20
2017-10-21T04:54:53.626Z,12.10
2017-10-21T04:57:21.987Z,12.10
2017-10-21T04:59:50.284Z,12.10
2017-10-21T05:02:18.594Z,12.10
2017-10-21T05:04:46.886Z,12.20
2017-10-21T05:07:15.171Z,12.10
2017-10-21T05:09:43.486Z,12.00
2017-10-21T05:12:12.533Z,12.00
2017-10-21T05:14:40.840Z,12.00
2017-10-21T05:17:09.161Z,12.00
2017-10-21T05:19:38.219Z,12.10
2017-10-21T05:22:06.484Z,12.10
2017-10-21T05:24:34.793Z,12.10
2017-10-21T05:27:03.140Z,11.90
2017-10-21T05:29:31.492Z,12.00
2017-10-21T05:31:59.821Z,11.90
2017-10-21T05:34:28.104Z,11.90
2017-10-21T05:36:57.154Z,11.90
2017-10-21T05:39:26.760Z,11.90
2017-10-21T05:41:55.826Z,11.90
2017-10-21T05:44:24.076Z,11.90
2017-10-21T05:46:53.212Z,11.90
2017-10-21T05:49:21.545Z,11.90
2017-10-21T05:51:50.574Z,11.80
2017-10-21T05:54:19.303Z,11.80
2017-10-21T05:56:47.572Z,11.80
2017-10-21T05:59:16.336Z,12.00
2017-10-21T06:01:44.652Z,11.90
2017-10-21T06:04:12.966Z,11.80
2017-10-21T06:06:41.440Z,11.80
2017-10-21T06:09:10.619Z,12.10
2017-10-21T06:11:39.673Z,12.20
2017-10-21T06:14:08.028Z,12.20
2017-10-21T06:16:36.359Z,12.10
2017-10-21T06:19:06.921Z,12.00
2017-10-21T06:21:35.252Z,12.00
2017-10-21T06:24:03.526Z,12.10
2017-10-21T06:26:32.255Z,12.30
2017-10-21T06:29:01.300Z,12.20
2017-10-21T06:31:29.626Z,12.20
2017-10-21T06:33:58.019Z,12.30
2017-10-21T06:36:26.277Z,12.20
2017-10-21T06:38:54.753Z,12.10
2017-10-21T06:41:23.806Z,12.20
2017-10-21T06:43:52.104Z,12.10
2017-10-21T06:46:21.333Z,12.10
2017-10-21T06:48:49.614Z,12.10
2017-10-21T06:51:17.973Z,12.00
2017-10-21T06:53:46.280Z,12.20
2017-10-21T06:56:14.530Z,12.40
2017-10-21T06:58:44.081Z,12.30
2017-10-21T07:01:12.405Z,12.30
2017-10-21T07:03:41.425Z,12.50
2017-10-21T07:06:09.705Z,12.50
2017-10-21T07:08:38.025Z,12.50
2017-10-21T07:11:06.349Z,12.80
2017-10-21T07:13:34.637Z,12.70
2017-10-21T07:16:03.034Z,13.00
2017-10-21T07:18:31.283Z,12.70
2017-10-21T07:20:59.533Z,12.50
2017-10-21T07:23:28.668Z,12.50
2017-10-21T07:25:56.935Z,12.50
2017-10-21T07:28:25.237Z,12.40
2017-10-21T07:30:53.574Z,12.40
2017-10-21T07:33:21.834Z,12.50
2017-10-21T07:35:50.153Z,12.50
2017-10-21T07:38:18.849Z,12.50
2017-10-21T07:40:47.164Z,12.50
2017-10-21T07:43:16.264Z,12.50
2017-10-21T07:45:45.315Z,12.50
2017-10-21T07:48:13.626Z,12.50
2017-10-21T07:50:42.707Z,12.50
2017-10-21T07:53:11.047Z,12.60
2017-10-21T07:55:39.290Z,12.70
2017-10-21T07:58:08.382Z,12.70
2017-10-21T08:00:37.433Z,12.70
2017-10-21T08:03:05.787Z,12.80
2017-10-21T08:05:35.269Z,12.70
2017-10-21T08:08:03.542Z,12.70
2017-10-21T08:10:31.783Z,12.70
2017-10-21T08:13:00.120Z,12.90
2017-10-21T08:15:28.416Z,12.80
2017-10-21T08:17:56.750Z,12.80
2017-10-21T08:20:25.122Z,13.00
2017-10-21T08:22:53.669Z,12.90
2017-10-21T08:25:22.038Z,12.90
2017-10-21T08:27:50.353Z,12.90
2017-10-21T08:30:18.717Z,12.90
2017-10-21T08:32:47.038Z,13.00
2017-10-21T08:35:15.344Z,13.00
2017-10-21T08:37:43.631Z,13.00
2017-10-21T08:40:12.112Z,13.00
2017-10-21T08:42:41.129Z,13.00
2017-10-21T08:45:09.420Z,13.00
2017-10-21T08:47:37.758Z,13.10
2017-10-21T08:50:06.084Z,13.00
2017-10-21T08:52:34.350Z,13.10
2017-10-21T08:55:02.780Z,13.00
2017-10-21T08:57:31.076Z,13.10
2017-10-21T08:59:59.356Z,13.00
2017-10-21T09:02:28.170Z,13.10
2017-10-21T09:04:57.356Z,13.10
2017-10-21T09:07:25.743Z,13.10
2017-10-21T09:09:54.235Z,13.20
2017-10-21T09:12:22.591Z,13.20
2017-10-21T09:14:50.836Z,13.10
2017-10-21T09:17:19.958Z,13.10
2017-10-21T09:19:48.973Z,13.20
2017-10-21T09:22:18.019Z,13.30
2017-10-21T09:24:46.324Z,13.30
2017-10-21T09:27:15.429Z,13.20
2017-10-21T09:29:43.833Z,13.20
2017-10-21T09:32:12.174Z,13.20
2017-10-21T09:34:41.268Z,13.20
2017-10-21T09:37:10.360Z,13.20
2017-10-21T09:39:39.443Z,13.30
2017-10-21T09:42:08.598Z,13.20
2017-10-21T09:44:36.895Z,13.20
2017-10-21T09:47:05.776Z,13.20
2017-10-21T09:49:34.061Z,13.30
2017-10-21T09:52:02.381Z,13.30
2017-10-21T09:54:30.904Z,13.20
2017-10-21T09:56:59.211Z,13.20
2017-10-21T09:59:27.475Z,13.30
2017-10-21T10:01:55.764Z,13.40
2017-10-21T10:04:24.023Z,13.50
2017-10-21T10:06:54.491Z,13.50
2017-10-21T10:09:23.528Z,13.30
2017-10-21T10:11:51.863Z,13.30
2017-10-21T10:14:20.215Z,13.30
2017-10-21T10:16:49.266Z,13.60
2017-10-21T10:19:17.835Z,13.60
2017-10-21T10:21:46.286Z,13.30
2017-10-21T10:24:15.325Z,13.50
2017-10-21T10:26:43.565Z,13.50
2017-10-21T10:29:11.932Z,13.40
2017-10-21T10:31:41.185Z,13.60
2017-10-21T10:34:09.526Z,13.60
2017-10-21T10:36:37.852Z,13.70
2017-10-21T10:39:06.118Z,13.50
2017-10-21T10:41:34.384Z,13.60
2017-10-21T10:44:02.711Z,13.50
2017-10-21T10:46:31.753Z,13.40
2017-10-21T10:49:00.034Z,13.40
2017-10-21T10:51:28.365Z,13.60
2017-10-21T10:53:56.632Z,13.50
2017-10-21T10:56:25.659Z,13.50
2017-10-21T10:58:54.001Z,13.40
2017-10-21T11:01:23.033Z,13.60
2017-10-21T11:03:51.335Z,13.50
2017-10-21T11:06:19.643Z,13.50
2017-10-21T11:08:48.702Z,13.50
2017-10-21T11:11:16.960Z,13.50
2017-10-21T11:13:45.459Z,13.70
2017-10-21T11:16:13.760Z,13.80
2017-10-21T11:18:42.027Z,13.80
2017-10-21T11:21:11.210Z,13.70
2017-10-21T11:23:39.468Z,13.70
2017-10-21T11:26:07.816Z,14.00
2017-10-21T11:28:36.149Z,13.80
2017-10-21T11:31:04.437Z,13.80
2017-10-21T11:33:32.948Z,13.70
2017-10-21T11:36:01.277Z,13.90
2017-10-21T11:38:29.543Z,13.80
2017-10-21T11:40:57.828Z,13.90
2017-10-21T11:43:26.198Z,13.80
2017-10-21T11:45:54.525Z,13.70
2017-10-21T11:48:22.812Z,13.70
2017-10-21T11:50:51.177Z,13.80
2017-10-21T11:53:20.199Z,13.90
2017-10-21T11:55:48.478Z,13.80
2017-10-21T11:58:17.891Z,14.00
2017-10-21T12:00:46.136Z,14.00
2017-10-21T12:03:14.402Z,13.90
2017-10-21T12:05:42.692Z,13.80
2017-10-21T12:08:10.963Z,13.80
2017-10-21T12:10:39.229Z,14.00
2017-10-21T12:13:07.693Z,14.00
2017-10-21T12:15:36.707Z,13.90
2017-10-21T12:18:04.977Z,13.90
2017-10-21T12:20:33.273Z,14.00
2017-10-21T12:23:01.528Z,14.00
2017-10-21T12:25:29.820Z,13.90
2017-10-21T12:27:58.144Z,14.10
2017-10-21T12:30:26.383Z,14.20
2017-10-21T12:32:55.500Z,14.00
2017-10-21T12:35:24.107Z,14.00
2017-10-21T12:37:52.358Z,14.00
2017-10-21T12:40:20.618Z,14.00
2017-10-21T12:42:48.944Z,14.00
2017-10-21T12:45:17.203Z,13.90
2017-10-21T12:47:45.598Z,13.80
2017-10-21T12:50:13.934Z,13.90
2017-10-21T12:52:42.196Z,14.00
2017-10-21T12:55:10.470Z,14.00
2017-10-21T12:57:38.780Z,13.90
2017-10-21T13:00:07.058Z,14.00
2017-10-21T13:02:36.116Z,13.90
2017-10-21T13:05:04.439Z,13.90
2017-10-21T13:07:32.725Z,14.00
2017-10-21T13:10:01.781Z,14.00
2017-10-21T13:12:30.100Z,14.00
2017-10-21T13:14:59.132Z,14.10
2017-10-21T13:17:27.417Z,14.10
2017-10-21T13:19:55.741Z,14.10
2017-10-21T13:22:24.063Z,14.00
2017-10-21T13:24:52.353Z,13.90
2017-10-21T13:27:20.915Z,13.90
2017-10-21T13:29:48.932Z,13.90
2017-10-21T13:32:17.237Z,13.90
2017-10-21T13:34:46.306Z,13.90
2017-10-21T13:37:15.155Z,13.80
2017-10-21T13:39:47.831Z,14.00
2017-10-21T13:42:17.895Z,14.10
2017-10-21T13:44:46.178Z,13.80
2017-10-21T13:47:14.603Z,13.90
2017-10-21T13:49:42.893Z,14.00
2017-10-21T13:52:11.143Z,13.90
2017-10-21T13:54:39.445Z,13.90
2017-10-21T13:57:07.711Z,13.80
2017-10-21T13:59:36.821Z,13.90
2017-10-21T14:02:05.120Z,13.90
2017-10-21T14:04:33.398Z,14.00
2017-10-21T14:07:01.663Z,13.90
2017-10-21T14:09:30.190Z,13.90
2017-10-21T14:11:58.496Z,13.90
2017-10-21T14:14:26.806Z,13.80
2017-10-21T14:16:55.232Z,13.90
2017-10-21T14:19:23.492Z,13.80
2017-10-21T14:21:51.783Z,13.90
2017-10-21T14:24:20.173Z,13.90
2017-10-21T14:26:48.433Z,13.80
2017-10-21T14:29:16.756Z,13.90
2017-10-21T14:31:45.060Z,13.80
2017-10-21T14:34:14.213Z,13.90
2017-10-21T14:36:45.003Z,13.80
2017-10-21T14:39:14.121Z,13.80
2017-10-21T14:41:42.422Z,13.80
2017-10-21T14:44:10.764Z,13.70
2017-10-21T14:46:39.276Z,13.80
2017-10-21T14:49:08.098Z,13.70
2017-10-21T14:51:36.452Z,13.70
2017-10-21T14:54:04.698Z,13.70
2017-10-21T14:56:32.992Z,13.60
2017-10-21T14:59:01.329Z,13.60
2017-10-21T15:01:30.469Z,13.60
2017-10-21T15:03:58.734Z,13.60
2017-10-21T15:06:27.041Z,13.70
2017-10-21T15:08:55.327Z,13.80
2017-10-21T15:11:23.846Z,13.70
2017-10-21T15:13:52.153Z,13.70
2017-10-21T15:16:20.443Z,13.60
2017-10-21T15:18:48.786Z,13.90
2017-10-21T15:21:17.147Z,13.80
2017-10-21T15:23:45.538Z,13.70
2017-10-21T15:26:13.810Z,13.80
2017-10-21T15:28:42.135Z,13.80
2017-10-21T15:31:11.318Z,14.00
2017-10-21T15:33:39.570Z,14.00
2017-10-21T15:36:07.847Z,13.90
2017-10-21T15:38:36.116Z,13.90
2017-10-21T15:41:04.381Z,13.90
2017-10-21T15:43:32.754Z,13.90
2017-10-21T15:46:01.042Z,13.80
2017-10-21T15:48:29.336Z,14.20
2017-10-21T15:50:57.625Z,14.30
2017-10-21T15:53:25.891Z,14.30
2017-10-21T15:55:54.157Z,14.30
2017-10-21T15:58:22.506Z,14.30
2017-10-21T16:00:50.794Z,14.30
2017-10-21T16:03:19.121Z,14.40
2017-10-21T16:05:47.770Z,14.50
2017-10-21T16:08:16.022Z,14.50
2017-10-21T16:10:45.076Z,14.30
2017-10-21T16:13:13.382Z,14.30
2017-10-21T16:15:42.489Z,14.30
2017-10-21T16:18:10.801Z,14.50
2017-10-21T16:20:39.078Z,14.50
2017-10-21T16:23:07.343Z,14.60
2017-10-21T16:25:36.646Z,14.60
2017-10-21T16:28:05.007Z,14.60
2017-10-21T16:30:33.300Z,14.60
2017-10-21T16:33:01.930Z,14.50
2017-10-21T16:35:30.275Z,14.60
2017-10-21T16:37:59.934Z,14.60
2017-10-21T16:40:29.772Z,14.40
2017-10-21T16:42:58.387Z,14.40
2017-10-21T16:45:26.656Z,14.40
2017-10-21T16:47:54.916Z,14.50
2017-10-21T16:50:23.272Z,14.30
2017-10-21T16:52:51.541Z,14.50
2017-10-21T16:55:19.884Z,14.40
2017-10-21T16:57:48.197Z,14.20
2017-10-21T17:00:16.465Z,14.50
2017-10-21T17:02:44.767Z,14.50
2017-10-21T17:05:13.120Z,14.50
2017-10-21T17:07:41.444Z,14.50
2017-10-21T17:10:09.779Z,14.60
2017-10-21T17:12:39.259Z,14.40
2017-10-21T17:15:07.562Z,14.40
2017-10-21T17:17:35.884Z,14.50
2017-10-21T17:20:04.338Z,14.30
2017-10-21T17:22:32.588Z,14.20
2017-10-21T17:25:00.856Z,14.10
2017-10-21T17:27:29.942Z,14.40
2017-10-21T17:29:58.998Z,14.40
2017-10-21T17:32:27.269Z,14.40
2017-10-21T17:34:55.604Z,14.50
2017-10-21T17:37:24.813Z,14.30
2017-10-21T17:39:53.130Z,14.30
2017-10-21T17:42:21.660Z,14.30
2017-10-21T17:44:50.700Z,14.30
2017-10-21T17:47:19.881Z,14.30
2017-10-21T17:49:48.181Z,14.20
2017-10-21T17:52:16.450Z,13.90
2017-10-21T17:54:45.956Z,13.60
2017-10-21T17:57:14.623Z,13.60
2017-10-21T17:59:42.859Z,13.50
2017-10-21T18:02:11.197Z,13.90
2017-10-21T18:04:39.525Z,14.10
2017-10-21T18:07:07.797Z,14.20
2017-10-21T18:09:36.558Z,14.20
2017-10-21T18:12:05.698Z,14.00
2017-10-21T18:14:33.957Z,13.90
2017-10-21T18:17:03.390Z,14.00
2017-10-21T18:19:31.769Z,14.00
2017-10-21T18:22:00.115Z,14.20
2017-10-21T18:24:28.389Z,14.20
2017-10-21T18:26:56.711Z,14.20
2017-10-21T18:29:25.070Z,14.00
2017-10-21T18:31:53.399Z,14.00
2017-10-21T18:34:22.489Z,14.00
2017-10-21T18:36:50.741Z,14.00
2017-10-21T18:39:19.175Z,14.10
2017-10-21T18:41:47.555Z,14.10
2017-10-21T18:44:16.020Z,14.10
2017-10-21T18:46:45.184Z,14.00
2017-10-21T18:49:13.497Z,14.00
2017-10-21T18:51:41.782Z,14.00
2017-10-21T18:54:10.228Z,14.00
2017-10-21T18:56:38.517Z,13.70
2017-10-21T18:59:07.575Z,13.50
2017-10-21T19:01:37.145Z,13.40
2017-10-21T19:04:05.404Z,13.70
2017-10-21T19:06:34.467Z,13.80
2017-10-21T19:09:03.043Z,13.70
2017-10-21T19:11:31.358Z,13.30
2017-10-21T19:13:59.741Z,13.20
2017-10-21T19:16:28.115Z,13.10
2017-10-21T19:18:57.141Z,13.00
2017-10-21T19:21:25.437Z,13.00
2017-10-21T19:23:53.763Z,13.00
2017-10-21T19:26:22.930Z,13.00
2017-10-21T19:28:51.225Z,13.20
2017-10-21T19:31:20.329Z,13.40
2017-10-21T19:33:48.673Z,13.40
2017-10-21T19:36:16.946Z,13.60
2017-10-21T19:38:45.204Z,13.70
2017-10-21T19:41:13.546Z,13.50
2017-10-21T19:43:41.903Z,13.40
2017-10-21T19:46:10.942Z,13.50
2017-10-21T19:48:39.539Z,13.50
2017-10-21T19:51:07.866Z,13.60
2017-10-21T19:53:36.144Z,13.50
2017-10-21T19:56:05.183Z,13.50
2017-10-21T19:58:33.629Z,13.40
2017-10-21T20:01:01.922Z,13.20
2017-10-21T20:03:30.264Z,13.00
2017-10-21T20:05:59.366Z,13.50
2017-10-21T20:08:27.740Z,13.40
2017-10-21T20:10:56.804Z,13.40
2017-10-21T20:13:25.143Z,13.40
2017-10-21T20:15:53.421Z,13.30
2017-10-21T20:18:21.699Z,12.90
2017-10-21T20:20:50.031Z,12.50
2017-10-21T20:23:18.300Z,12.30
2017-10-21T20:25:46.584Z,12.50
2017-10-21T20:28:14.946Z,12.40
2017-10-21T20:30:43.227Z,12.20
2017-10-21T20:33:11.554Z,12.20
2017-10-21T20:35:39.879Z,12.50
2017-10-21T20:38:08.227Z,12.90
2017-10-21T20:40:36.613Z,12.80
2017-10-21T20:43:04.970Z,12.70
2017-10-21T20:45:33.863Z,12.60
2017-10-21T20:48:02.193Z,12.90
2017-10-21T20:50:30.675Z,13.00
2017-10-21T20:52:58.986Z,12.80
2017-10-21T20:55:27.280Z,12.50
2017-10-21T20:57:55.616Z,12.90
2017-10-21T21:00:24.043Z,13.20
2017-10-21T21:02:52.393Z,13.10
2017-10-21T21:05:22.412Z,13.10
2017-10-21T21:07:50.965Z,13.10
2017-10-21T21:10:19.232Z,13.10
2017-10-21T21:12:48.359Z,13.00
2017-10-21T21:15:16.621Z,13.00
2017-10-21T21:17:44.897Z,12.80
2017-10-21T21:20:13.193Z,13.00
2017-10-21T21:22:41.464Z,13.10
2017-10-21T21:25:09.812Z,13.10
2017-10-21T21:27:38.918Z,13.00
2017-10-21T21:30:07.250Z,13.00
2017-10-21T21:32:35.620Z,13.10
2017-10-21T21:35:03.996Z,13.10
2017-10-21T21:37:32.321Z,13.20
2017-10-21T21:40:00.626Z,13.10
2017-10-21T21:42:28.995Z,13.10
2017-10-21T21:44:57.302Z,13.20
2017-10-21T21:47:25.646Z,13.10
2017-10-21T21:49:53.983Z,13.10
2017-10-21T21:52:22.265Z,13.10
2017-10-21T21:54:50.581Z,13.10
2017-10-21T21:57:19.668Z,13.00
2017-10-21T21:59:47.936Z,13.00
2017-10-21T22:02:16.228Z,13.00
2017-10-21T22:04:44.542Z,13.00
2017-10-21T22:07:12.873Z,13.10
2017-10-21T22:09:41.198Z,13.10
2017-10-21T22:12:09.732Z,13.10
2017-10-21T22:14:38.058Z,13.10
2017-10-21T22:17:06.356Z,13.20
2017-10-21T22:19:35.445Z,13.10
2017-10-21T22:22:04.529Z,13.20
2017-10-21T22:24:32.836Z,13.20
2017-10-21T22:27:01.165Z,13.00
2017-10-21T22:29:29.500Z,13.00
2017-10-21T22:31:57.784Z,13.10
2017-10-21T22:34:26.158Z,13.10
2017-10-21T22:36:54.448Z,13.10
2017-10-21T22:39:22.711Z,13.00
2017-10-21T22:41:51.056Z,12.90
2017-10-21T22:44:19.330Z,12.90
2017-10-21T22:46:47.655Z,12.90
2017-10-21T22:49:15.965Z,13.00
2017-10-21T22:51:44.239Z,13.00
2017-10-21T22:54:12.541Z,13.00
2017-10-21T22:56:41.659Z,12.90
2017-10-21T22:59:09.961Z,12.90
2017-10-21T23:01:38.240Z,12.80
2017-10-21T23:04:06.557Z,12.80
2017-10-21T23:06:34.856Z,12.90
2017-10-21T23:09:03.163Z,12.80
2017-10-21T23:11:31.458Z,12.80
2017-10-21T23:13:59.705Z,12.80
2017-10-21T23:16:27.996Z,12.80
2017-10-21T23:18:56.336Z,12.90
2017-10-21T23:21:25.357Z,12.80
2017-10-21T23:23:53.776Z,12.80
2017-10-21T23:26:22.088Z,12.80
2017-10-21T23:28:50.387Z,12.80
2017-10-21T23:31:19.604Z,12.70
2017-10-21T23:33:47.974Z,12.70
2017-10-21T23:36:16.230Z,12.70
2017-10-21T23:38:44.485Z,12.60
2017-10-21T23:41:12.830Z,12.50
2017-10-21T23:43:41.135Z,12.50
2017-10-21T23:46:09.433Z,12.50
2017-10-21T23:48:37.783Z,12.50
2017-10-21T23:51:06.035Z,12.70
2017-10-21T23:53:34.347Z,12.60
2017-10-21T23:56:03.003Z,12.50
2017-10-21T23:58:31.288Z,12.40
